sensor_id;sensor_type;location;lat;lon;timestamp;P1;durP1;ratioP1;P2;durP2;ratioP2
14858;SDS011;7521;51.700;6.874;2023-04-25T00:01:39;18.33;;;7.23;;
14858;SDS011;7521;51.700;6.874;2023-04-25T00:04:44;17.67;;;6.80;;
14858;SDS011;7521;51.700;6.874;2023-04-25T00:07:49;18.53;;;6.57;;
14858;SDS011;7521;51.700;6.874;2023-04-25T00:10:55;19.70;;;7.67;;
14858;SDS011;7521;51.700;6.874;2023-04-25T00:14:00;15.18;;;6.68;;
14858;SDS011;7521;51.700;6.874;2023-04-25T00:17:07;18.30;;;7.97;;
14858;SDS011;7521;51.700;6.874;2023-04-25T00:20:12;16.40;;;6.53;;
14858;SDS011;7521;51.700;6.874;2023-04-25T00:23:17;16.08;;;6.88;;
14858;SDS011;7521;51.700;6.874;2023-04-25T00:26:23;16.63;;;7.50;;
14858;SDS011;7521;51.700;6.874;2023-04-25T00:29:28;14.80;;;6.20;;
14858;SDS011;7521;51.700;6.874;2023-04-25T00:32:33;14.85;;;6.50;;
14858;SDS011;7521;51.700;6.874;2023-04-25T00:35:38;12.47;;;6.27;;
14858;SDS011;7521;51.700;6.874;2023-04-25T00:38:43;16.07;;;5.77;;
14858;SDS011;7521;51.700;6.874;2023-04-25T00:41:48;13.38;;;5.57;;
14858;SDS011;7521;51.700;6.874;2023-04-25T00:44:58;10.47;;;5.67;;
14858;SDS011;7521;51.700;6.874;2023-04-25T00:48:04;12.40;;;5.43;;
14858;SDS011;7521;51.700;6.874;2023-04-25T00:51:09;15.23;;;5.90;;
14858;SDS011;7521;51.700;6.874;2023-04-25T00:54:17;11.50;;;5.40;;
14858;SDS011;7521;51.700;6.874;2023-04-25T00:57:22;9.10;;;5.20;;
14858;SDS011;7521;51.700;6.874;2023-04-25T01:00:27;13.93;;;6.03;;
14858;SDS011;7521;51.700;6.874;2023-04-25T01:03:33;12.63;;;5.67;;
14858;SDS011;7521;51.700;6.874;2023-04-25T01:06:40;16.10;;;5.10;;
14858;SDS011;7521;51.700;6.874;2023-04-25T01:09:46;8.55;;;4.65;;
14858;SDS011;7521;51.700;6.874;2023-04-25T01:12:51;10.63;;;5.47;;
14858;SDS011;7521;51.700;6.874;2023-04-25T01:15:56;8.90;;;4.70;;
14858;SDS011;7521;51.700;6.874;2023-04-25T01:19:01;8.48;;;5.28;;
14858;SDS011;7521;51.700;6.874;2023-04-25T01:22:10;9.03;;;4.33;;
14858;SDS011;7521;51.700;6.874;2023-04-25T01:25:15;13.20;;;4.75;;
14858;SDS011;7521;51.700;6.874;2023-04-25T01:28:20;13.57;;;5.20;;
14858;SDS011;7521;51.700;6.874;2023-04-25T01:31:27;13.70;;;5.57;;
14858;SDS011;7521;51.700;6.874;2023-04-25T01:34:32;14.50;;;5.37;;
14858;SDS011;7521;51.700;6.874;2023-04-25T01:37:38;12.20;;;5.63;;
14858;SDS011;7521;51.700;6.874;2023-04-25T01:40:44;13.97;;;6.03;;
14858;SDS011;7521;51.700;6.874;2023-04-25T01:43:50;10.10;;;6.00;;
14858;SDS011;7521;51.700;6.874;2023-04-25T01:46:55;17.95;;;6.18;;
14858;SDS011;7521;51.700;6.874;2023-04-25T01:50:03;13.83;;;6.47;;
14858;SDS011;7521;51.700;6.874;2023-04-25T01:53:09;17.17;;;5.93;;
14858;SDS011;7521;51.700;6.874;2023-04-25T01:56:15;14.27;;;5.47;;
14858;SDS011;7521;51.700;6.874;2023-04-25T01:59:22;15.97;;;6.67;;
14858;SDS011;7521;51.700;6.874;2023-04-25T02:02:27;13.53;;;6.37;;
14858;SDS011;7521;51.700;6.874;2023-04-25T02:05:36;13.45;;;6.55;;
14858;SDS011;7521;51.700;6.874;2023-04-25T02:08:41;18.27;;;7.10;;
14858;SDS011;7521;51.700;6.874;2023-04-25T02:11:46;10.87;;;6.03;;
14858;SDS011;7521;51.700;6.874;2023-04-25T02:14:52;13.43;;;6.80;;
14858;SDS011;7521;51.700;6.874;2023-04-25T02:17:57;14.60;;;6.30;;
14858;SDS011;7521;51.700;6.874;2023-04-25T02:21:02;11.47;;;6.10;;
14858;SDS011;7521;51.700;6.874;2023-04-25T02:24:08;15.32;;;6.50;;
14858;SDS011;7521;51.700;6.874;2023-04-25T02:27:13;15.07;;;6.73;;
14858;SDS011;7521;51.700;6.874;2023-04-25T02:30:18;16.75;;;6.97;;
14858;SDS011;7521;51.700;6.874;2023-04-25T02:33:23;14.93;;;6.50;;
14858;SDS011;7521;51.700;6.874;2023-04-25T02:36:28;17.83;;;7.10;;
14858;SDS011;7521;51.700;6.874;2023-04-25T02:39:37;20.17;;;6.83;;
14858;SDS011;7521;51.700;6.874;2023-04-25T02:42:42;12.20;;;7.13;;
14858;SDS011;7521;51.700;6.874;2023-04-25T02:45:47;17.13;;;6.50;;
14858;SDS011;7521;51.700;6.874;2023-04-25T02:48:52;18.70;;;6.85;;
14858;SDS011;7521;51.700;6.874;2023-04-25T02:51:57;17.47;;;7.60;;
14858;SDS011;7521;51.700;6.874;2023-04-25T02:55:02;15.68;;;7.43;;
14858;SDS011;7521;51.700;6.874;2023-04-25T02:58:08;13.63;;;6.87;;
14858;SDS011;7521;51.700;6.874;2023-04-25T03:01:13;14.52;;;7.10;;
14858;SDS011;7521;51.700;6.874;2023-04-25T03:04:18;15.50;;;6.93;;
14858;SDS011;7521;51.700;6.874;2023-04-25T03:07:24;12.73;;;3.77;;
14858;SDS011;7521;51.700;6.874;2023-04-25T03:10:29;9.07;;;3.10;;
14858;SDS011;7521;51.700;6.874;2023-04-25T03:13:34;11.65;;;2.72;;
14858;SDS011;7521;51.700;6.874;2023-04-25T03:16:40;12.70;;;3.50;;
14858;SDS011;7521;51.700;6.874;2023-04-25T03:19:45;9.73;;;2.57;;
14858;SDS011;7521;51.700;6.874;2023-04-25T03:22:50;14.10;;;3.70;;
14858;SDS011;7521;51.700;6.874;2023-04-25T03:25:55;12.80;;;3.58;;
14858;SDS011;7521;51.700;6.874;2023-04-25T03:29:00;14.27;;;3.13;;
14858;SDS011;7521;51.700;6.874;2023-04-25T03:32:05;11.70;;;3.38;;
14858;SDS011;7521;51.700;6.874;2023-04-25T03:35:11;14.13;;;3.60;;
14858;SDS011;7521;51.700;6.874;2023-04-25T03:38:16;8.87;;;3.23;;
14858;SDS011;7521;51.700;6.874;2023-04-25T03:41:21;10.77;;;3.30;;
14858;SDS011;7521;51.700;6.874;2023-04-25T03:44:26;11.63;;;3.28;;
14858;SDS011;7521;51.700;6.874;2023-04-25T03:47:32;8.93;;;3.00;;
14858;SDS011;7521;51.700;6.874;2023-04-25T03:50:37;12.57;;;4.47;;
14858;SDS011;7521;51.700;6.874;2023-04-25T03:53:42;9.73;;;3.80;;
14858;SDS011;7521;51.700;6.874;2023-04-25T03:56:47;14.40;;;4.18;;
14858;SDS011;7521;51.700;6.874;2023-04-25T03:59:53;10.97;;;3.00;;
14858;SDS011;7521;51.700;6.874;2023-04-25T04:02:58;10.03;;;3.30;;
14858;SDS011;7521;51.700;6.874;2023-04-25T04:06:04;10.20;;;3.20;;
14858;SDS011;7521;51.700;6.874;2023-04-25T04:09:10;7.80;;;2.50;;
14858;SDS011;7521;51.700;6.874;2023-04-25T04:12:16;14.87;;;3.40;;
14858;SDS011;7521;51.700;6.874;2023-04-25T04:15:21;12.93;;;4.20;;
14858;SDS011;7521;51.700;6.874;2023-04-25T04:18:26;16.33;;;4.20;;
14858;SDS011;7521;51.700;6.874;2023-04-25T04:21:31;10.40;;;3.55;;
14858;SDS011;7521;51.700;6.874;2023-04-25T04:24:38;9.03;;;3.50;;
14858;SDS011;7521;51.700;6.874;2023-04-25T04:27:43;13.18;;;4.38;;
14858;SDS011;7521;51.700;6.874;2023-04-25T04:30:49;14.67;;;4.30;;
14858;SDS011;7521;51.700;6.874;2023-04-25T04:33:56;13.10;;;5.07;;
14858;SDS011;7521;51.700;6.874;2023-04-25T04:37:01;15.93;;;5.15;;
14858;SDS011;7521;51.700;6.874;2023-04-25T04:40:07;16.80;;;5.73;;
14858;SDS011;7521;51.700;6.874;2023-04-25T04:43:12;15.10;;;5.17;;
14858;SDS011;7521;51.700;6.874;2023-04-25T04:46:18;18.73;;;5.97;;
14858;SDS011;7521;51.700;6.874;2023-04-25T04:49:23;16.50;;;6.13;;
14858;SDS011;7521;51.700;6.874;2023-04-25T04:52:28;16.80;;;6.13;;
14858;SDS011;7521;51.700;6.874;2023-04-25T04:55:33;20.40;;;7.23;;
14858;SDS011;7521;51.700;6.874;2023-04-25T04:58:38;23.10;;;6.72;;
14858;SDS011;7521;51.700;6.874;2023-04-25T05:01:44;23.53;;;7.33;;
14858;SDS011;7521;51.700;6.874;2023-04-25T05:04:49;20.85;;;7.50;;
14858;SDS011;7521;51.700;6.874;2023-04-25T05:07:56;29.57;;;8.07;;
14858;SDS011;7521;51.700;6.874;2023-04-25T05:11:01;17.10;;;7.03;;
14858;SDS011;7521;51.700;6.874;2023-04-25T05:14:06;21.33;;;7.87;;
14858;SDS011;7521;51.700;6.874;2023-04-25T05:17:11;24.75;;;7.55;;
14858;SDS011;7521;51.700;6.874;2023-04-25T05:20:17;24.37;;;8.13;;
14858;SDS011;7521;51.700;6.874;2023-04-25T05:23:23;23.20;;;8.10;;
14858;SDS011;7521;51.700;6.874;2023-04-25T05:26:29;18.52;;;7.70;;
14858;SDS011;7521;51.700;6.874;2023-04-25T05:29:35;22.20;;;8.87;;
14858;SDS011;7521;51.700;6.874;2023-04-25T05:32:41;21.73;;;8.23;;
14858;SDS011;7521;51.700;6.874;2023-04-25T05:35:47;23.93;;;8.37;;
14858;SDS011;7521;51.700;6.874;2023-04-25T05:38:52;24.85;;;8.10;;
14858;SDS011;7521;51.700;6.874;2023-04-25T05:41:57;23.23;;;8.35;;
14858;SDS011;7521;51.700;6.874;2023-04-25T05:45:02;21.43;;;7.87;;
14858;SDS011;7521;51.700;6.874;2023-04-25T05:48:07;20.07;;;8.33;;
14858;SDS011;7521;51.700;6.874;2023-04-25T05:51:13;21.43;;;7.27;;
14858;SDS011;7521;51.700;6.874;2023-04-25T05:54:18;26.37;;;8.97;;
14858;SDS011;7521;51.700;6.874;2023-04-25T05:57:24;21.52;;;8.00;;
14858;SDS011;7521;51.700;6.874;2023-04-25T06:00:30;19.83;;;7.80;;
14858;SDS011;7521;51.700;6.874;2023-04-25T06:03:35;20.43;;;7.57;;
14858;SDS011;7521;51.700;6.874;2023-04-25T06:06:42;21.00;;;6.63;;
14858;SDS011;7521;51.700;6.874;2023-04-25T06:09:47;17.33;;;6.22;;
14858;SDS011;7521;51.700;6.874;2023-04-25T06:12:53;12.82;;;4.97;;
14858;SDS011;7521;51.700;6.874;2023-04-25T06:15:58;18.60;;;5.70;;
14858;SDS011;7521;51.700;6.874;2023-04-25T06:19:03;19.38;;;5.85;;
14858;SDS011;7521;51.700;6.874;2023-04-25T06:22:08;16.17;;;5.15;;
14858;SDS011;7521;51.700;6.874;2023-04-25T06:25:13;13.35;;;4.78;;
14858;SDS011;7521;51.700;6.874;2023-04-25T06:28:18;10.10;;;5.03;;
14858;SDS011;7521;51.700;6.874;2023-04-25T06:31:24;18.93;;;4.13;;
14858;SDS011;7521;51.700;6.874;2023-04-25T06:34:30;9.10;;;3.60;;
14858;SDS011;7521;51.700;6.874;2023-04-25T06:37:35;13.87;;;3.77;;
14858;SDS011;7521;51.700;6.874;2023-04-25T06:40:40;12.50;;;4.18;;
14858;SDS011;7521;51.700;6.874;2023-04-25T06:43:45;11.02;;;3.45;;
14858;SDS011;7521;51.700;6.874;2023-04-25T06:46:51;11.80;;;3.10;;
14858;SDS011;7521;51.700;6.874;2023-04-25T06:49:56;12.05;;;2.88;;
14858;SDS011;7521;51.700;6.874;2023-04-25T06:53:01;9.40;;;2.42;;
14858;SDS011;7521;51.700;6.874;2023-04-25T06:56:06;9.73;;;2.87;;
14858;SDS011;7521;51.700;6.874;2023-04-25T06:59:11;8.95;;;3.08;;
14858;SDS011;7521;51.700;6.874;2023-04-25T07:02:16;11.83;;;2.70;;
14858;SDS011;7521;51.700;6.874;2023-04-25T07:05:22;9.43;;;2.92;;
14858;SDS011;7521;51.700;6.874;2023-04-25T07:08:27;11.80;;;2.95;;
14858;SDS011;7521;51.700;6.874;2023-04-25T07:11:33;12.63;;;3.30;;
14858;SDS011;7521;51.700;6.874;2023-04-25T07:14:38;9.27;;;2.97;;
14858;SDS011;7521;51.700;6.874;2023-04-25T07:17:44;13.70;;;3.63;;
14858;SDS011;7521;51.700;6.874;2023-04-25T07:20:49;12.02;;;3.78;;
14858;SDS011;7521;51.700;6.874;2023-04-25T07:23:54;13.45;;;3.53;;
14858;SDS011;7521;51.700;6.874;2023-04-25T07:26:59;10.23;;;3.50;;
14858;SDS011;7521;51.700;6.874;2023-04-25T07:30:06;11.70;;;3.27;;
14858;SDS011;7521;51.700;6.874;2023-04-25T07:33:11;13.93;;;3.60;;
14858;SDS011;7521;51.700;6.874;2023-04-25T07:36:16;14.67;;;4.37;;
14858;SDS011;7521;51.700;6.874;2023-04-25T07:39:22;12.05;;;3.63;;
14858;SDS011;7521;51.700;6.874;2023-04-25T07:42:28;14.47;;;3.50;;
14858;SDS011;7521;51.700;6.874;2023-04-25T07:45:33;10.43;;;3.17;;
14858;SDS011;7521;51.700;6.874;2023-04-25T07:48:38;13.55;;;3.67;;
14858;SDS011;7521;51.700;6.874;2023-04-25T07:51:43;11.07;;;2.87;;
14858;SDS011;7521;51.700;6.874;2023-04-25T07:54:48;15.43;;;4.07;;
14858;SDS011;7521;51.700;6.874;2023-04-25T07:57:54;11.13;;;3.17;;
14858;SDS011;7521;51.700;6.874;2023-04-25T08:00:59;12.02;;;3.22;;
14858;SDS011;7521;51.700;6.874;2023-04-25T08:04:04;14.85;;;3.58;;
14858;SDS011;7521;51.700;6.874;2023-04-25T08:07:09;11.13;;;3.07;;
14858;SDS011;7521;51.700;6.874;2023-04-25T08:10:14;14.98;;;3.33;;
14858;SDS011;7521;51.700;6.874;2023-04-25T08:13:19;15.00;;;3.22;;
14858;SDS011;7521;51.700;6.874;2023-04-25T08:16:25;12.93;;;2.45;;
14858;SDS011;7521;51.700;6.874;2023-04-25T08:19:30;12.32;;;3.40;;
14858;SDS011;7521;51.700;6.874;2023-04-25T08:22:35;11.67;;;2.70;;
14858;SDS011;7521;51.700;6.874;2023-04-25T08:25:40;10.90;;;2.70;;
14858;SDS011;7521;51.700;6.874;2023-04-25T08:28:46;12.85;;;2.60;;
14858;SDS011;7521;51.700;6.874;2023-04-25T08:31:51;13.90;;;3.27;;
14858;SDS011;7521;51.700;6.874;2023-04-25T08:34:57;14.80;;;2.90;;
14858;SDS011;7521;51.700;6.874;2023-04-25T08:38:02;16.55;;;2.65;;
14858;SDS011;7521;51.700;6.874;2023-04-25T08:41:08;11.50;;;2.58;;
14858;SDS011;7521;51.700;6.874;2023-04-25T08:44:13;9.60;;;2.43;;
14858;SDS011;7521;51.700;6.874;2023-04-25T08:47:20;8.17;;;2.27;;
14858;SDS011;7521;51.700;6.874;2023-04-25T08:50:26;14.47;;;2.40;;
14858;SDS011;7521;51.700;6.874;2023-04-25T08:53:32;16.30;;;2.40;;
14858;SDS011;7521;51.700;6.874;2023-04-25T08:56:38;8.67;;;1.90;;
14858;SDS011;7521;51.700;6.874;2023-04-25T08:59:44;6.50;;;2.00;;
14858;SDS011;7521;51.700;6.874;2023-04-25T09:02:50;9.47;;;1.80;;
14858;SDS011;7521;51.700;6.874;2023-04-25T09:05:56;10.90;;;2.30;;
14858;SDS011;7521;51.700;6.874;2023-04-25T09:09:02;7.60;;;1.70;;
14858;SDS011;7521;51.700;6.874;2023-04-25T09:12:07;7.87;;;1.77;;
14858;SDS011;7521;51.700;6.874;2023-04-25T09:15:12;12.13;;;2.07;;
14858;SDS011;7521;51.700;6.874;2023-04-25T09:18:27;8.30;;;2.00;;
14858;SDS011;7521;51.700;6.874;2023-04-25T09:21:33;8.57;;;1.60;;
14858;SDS011;7521;51.700;6.874;2023-04-25T09:24:40;6.97;;;1.83;;
14858;SDS011;7521;51.700;6.874;2023-04-25T09:27:50;5.57;;;1.40;;
14858;SDS011;7521;51.700;6.874;2023-04-25T09:30:56;4.13;;;1.20;;
14858;SDS011;7521;51.700;6.874;2023-04-25T09:34:05;6.20;;;1.57;;
14858;SDS011;7521;51.700;6.874;2023-04-25T09:37:10;7.05;;;1.50;;
14858;SDS011;7521;51.700;6.874;2023-04-25T09:40:15;9.30;;;1.50;;
14858;SDS011;7521;51.700;6.874;2023-04-25T09:43:22;7.00;;;1.50;;
14858;SDS011;7521;51.700;6.874;2023-04-25T09:46:32;7.53;;;1.73;;
14858;SDS011;7521;51.700;6.874;2023-04-25T09:49:38;6.13;;;1.50;;
14858;SDS011;7521;51.700;6.874;2023-04-25T09:52:44;10.03;;;2.13;;
14858;SDS011;7521;51.700;6.874;2023-04-25T09:55:49;12.30;;;2.03;;
14858;SDS011;7521;51.700;6.874;2023-04-25T09:58:55;10.97;;;1.80;;
14858;SDS011;7521;51.700;6.874;2023-04-25T10:02:00;10.00;;;1.80;;
14858;SDS011;7521;51.700;6.874;2023-04-25T10:05:07;8.47;;;2.10;;
14858;SDS011;7521;51.700;6.874;2023-04-25T10:08:12;8.27;;;1.57;;
14858;SDS011;7521;51.700;6.874;2023-04-25T10:11:18;12.20;;;3.70;;
14858;SDS011;7521;51.700;6.874;2023-04-25T10:14:23;9.80;;;2.77;;
14858;SDS011;7521;51.700;6.874;2023-04-25T10:17:29;13.17;;;5.00;;
14858;SDS011;7521;51.700;6.874;2023-04-25T10:20:34;16.63;;;5.97;;
14858;SDS011;7521;51.700;6.874;2023-04-25T10:23:39;11.03;;;4.77;;
14858;SDS011;7521;51.700;6.874;2023-04-25T10:26:45;5.73;;;1.60;;
14858;SDS011;7521;51.700;6.874;2023-04-25T10:30:02;6.77;;;2.50;;
14858;SDS011;7521;51.700;6.874;2023-04-25T10:33:18;10.87;;;3.07;;
14858;SDS011;7521;51.700;6.874;2023-04-25T10:36:33;8.53;;;2.10;;
14858;SDS011;7521;51.700;6.874;2023-04-25T10:39:39;3.20;;;1.40;;
14858;SDS011;7521;51.700;6.874;2023-04-25T10:42:45;7.47;;;2.73;;
14858;SDS011;7521;51.700;6.874;2023-04-25T10:45:50;4.23;;;1.10;;
14858;SDS011;7521;51.700;6.874;2023-04-25T10:48:56;4.73;;;2.47;;
14858;SDS011;7521;51.700;6.874;2023-04-25T10:52:12;5.17;;;1.00;;
14858;SDS011;7521;51.700;6.874;2023-04-25T10:55:18;4.30;;;1.70;;
14858;SDS011;7521;51.700;6.874;2023-04-25T10:58:25;6.67;;;1.33;;
14858;SDS011;7521;51.700;6.874;2023-04-25T11:01:35;7.23;;;1.10;;
14858;SDS011;7521;51.700;6.874;2023-04-25T11:04:40;5.87;;;1.40;;
14858;SDS011;7521;51.700;6.874;2023-04-25T11:07:49;3.93;;;0.80;;
14858;SDS011;7521;51.700;6.874;2023-04-25T11:10:55;7.67;;;1.30;;
14858;SDS011;7521;51.700;6.874;2023-04-25T11:14:01;3.33;;;0.90;;
14858;SDS011;7521;51.700;6.874;2023-04-25T11:17:06;5.88;;;0.95;;
14858;SDS011;7521;51.700;6.874;2023-04-25T11:20:11;5.13;;;0.90;;
14858;SDS011;7521;51.700;6.874;2023-04-25T11:23:16;4.67;;;1.13;;
14858;SDS011;7521;51.700;6.874;2023-04-25T11:26:21;4.10;;;1.00;;
14858;SDS011;7521;51.700;6.874;2023-04-25T11:29:27;7.33;;;1.50;;
14858;SDS011;7521;51.700;6.874;2023-04-25T11:32:33;6.40;;;1.00;;
14858;SDS011;7521;51.700;6.874;2023-04-25T11:35:40;4.50;;;1.00;;
14858;SDS011;7521;51.700;6.874;2023-04-25T11:38:45;8.37;;;2.67;;
14858;SDS011;7521;51.700;6.874;2023-04-25T11:41:50;5.80;;;2.08;;
14858;SDS011;7521;51.700;6.874;2023-04-25T11:44:55;10.03;;;2.07;;
14858;SDS011;7521;51.700;6.874;2023-04-25T11:48:01;3.17;;;0.93;;
14858;SDS011;7521;51.700;6.874;2023-04-25T11:51:07;4.13;;;1.03;;
14858;SDS011;7521;51.700;6.874;2023-04-25T11:54:12;6.37;;;1.37;;
14858;SDS011;7521;51.700;6.874;2023-04-25T11:57:21;6.37;;;1.17;;
14858;SDS011;7521;51.700;6.874;2023-04-25T12:00:26;4.57;;;1.03;;
14858;SDS011;7521;51.700;6.874;2023-04-25T12:03:31;6.37;;;2.07;;
14858;SDS011;7521;51.700;6.874;2023-04-25T12:06:38;2.50;;;0.77;;
14858;SDS011;7521;51.700;6.874;2023-04-25T12:09:45;4.93;;;1.60;;
14858;SDS011;7521;51.700;6.874;2023-04-25T12:12:56;7.70;;;1.43;;
14858;SDS011;7521;51.700;6.874;2023-04-25T12:16:01;5.30;;;1.25;;
14858;SDS011;7521;51.700;6.874;2023-04-25T12:19:06;5.97;;;1.17;;
14858;SDS011;7521;51.700;6.874;2023-04-25T12:22:18;3.40;;;1.00;;
14858;SDS011;7521;51.700;6.874;2023-04-25T12:25:40;3.30;;;0.80;;
14858;SDS011;7521;51.700;6.874;2023-04-25T12:28:46;5.43;;;1.10;;
14858;SDS011;7521;51.700;6.874;2023-04-25T12:31:52;3.87;;;1.17;;
14858;SDS011;7521;51.700;6.874;2023-04-25T12:34:57;4.43;;;1.20;;
14858;SDS011;7521;51.700;6.874;2023-04-25T12:38:02;6.27;;;1.13;;
14858;SDS011;7521;51.700;6.874;2023-04-25T12:41:08;5.45;;;1.27;;
14858;SDS011;7521;51.700;6.874;2023-04-25T12:44:13;10.73;;;1.80;;
14858;SDS011;7521;51.700;6.874;2023-04-25T12:47:19;8.37;;;1.30;;
14858;SDS011;7521;51.700;6.874;2023-04-25T12:50:24;3.07;;;1.00;;
14858;SDS011;7521;51.700;6.874;2023-04-25T12:53:31;6.13;;;1.20;;
14858;SDS011;7521;51.700;6.874;2023-04-25T12:56:36;5.82;;;1.40;;
14858;SDS011;7521;51.700;6.874;2023-04-25T12:59:41;4.68;;;1.35;;
14858;SDS011;7521;51.700;6.874;2023-04-25T13:02:46;5.68;;;1.17;;
14858;SDS011;7521;51.700;6.874;2023-04-25T13:05:52;8.32;;;1.73;;
14858;SDS011;7521;51.700;6.874;2023-04-25T13:08:57;9.20;;;1.50;;
14858;SDS011;7521;51.700;6.874;2023-04-25T13:12:03;5.07;;;1.30;;
14858;SDS011;7521;51.700;6.874;2023-04-25T13:15:09;2.90;;;0.97;;
14858;SDS011;7521;51.700;6.874;2023-04-25T13:18:16;3.93;;;0.70;;
14858;SDS011;7521;51.700;6.874;2023-04-25T13:21:21;4.90;;;0.90;;
14858;SDS011;7521;51.700;6.874;2023-04-25T13:24:26;7.45;;;1.02;;
14858;SDS011;7521;51.700;6.874;2023-04-25T13:27:31;3.28;;;0.70;;
14858;SDS011;7521;51.700;6.874;2023-04-25T13:30:38;4.00;;;0.83;;
14858;SDS011;7521;51.700;6.874;2023-04-25T13:33:44;3.70;;;0.90;;
14858;SDS011;7521;51.700;6.874;2023-04-25T13:36:49;3.83;;;1.07;;
14858;SDS011;7521;51.700;6.874;2023-04-25T13:39:54;2.53;;;0.80;;
14858;SDS011;7521;51.700;6.874;2023-04-25T13:43:00;5.23;;;1.00;;
14858;SDS011;7521;51.700;6.874;2023-04-25T13:46:06;3.63;;;0.97;;
14858;SDS011;7521;51.700;6.874;2023-04-25T13:49:11;1.93;;;0.93;;
14858;SDS011;7521;51.700;6.874;2023-04-25T13:52:16;3.78;;;1.10;;
14858;SDS011;7521;51.700;6.874;2023-04-25T13:55:21;5.63;;;1.17;;
14858;SDS011;7521;51.700;6.874;2023-04-25T13:58:26;5.88;;;1.52;;
14858;SDS011;7521;51.700;6.874;2023-04-25T14:01:31;7.50;;;1.88;;
14858;SDS011;7521;51.700;6.874;2023-04-25T14:04:39;6.90;;;1.77;;
14858;SDS011;7521;51.700;6.874;2023-04-25T14:07:44;7.40;;;1.50;;
14858;SDS011;7521;51.700;6.874;2023-04-25T14:10:49;5.10;;;1.93;;
14858;SDS011;7521;51.700;6.874;2023-04-25T14:13:55;7.60;;;2.57;;
14858;SDS011;7521;51.700;6.874;2023-04-25T14:17:00;7.15;;;1.70;;
14858;SDS011;7521;51.700;6.874;2023-04-25T14:20:05;11.40;;;3.88;;
14858;SDS011;7521;51.700;6.874;2023-04-25T14:23:11;4.90;;;1.30;;
14858;SDS011;7521;51.700;6.874;2023-04-25T14:26:16;5.03;;;1.43;;
14858;SDS011;7521;51.700;6.874;2023-04-25T14:29:21;5.07;;;1.33;;
14858;SDS011;7521;51.700;6.874;2023-04-25T14:32:26;6.67;;;2.67;;
14858;SDS011;7521;51.700;6.874;2023-04-25T14:35:31;5.38;;;1.10;;
14858;SDS011;7521;51.700;6.874;2023-04-25T14:38:37;4.57;;;1.98;;
14858;SDS011;7521;51.700;6.874;2023-04-25T14:41:42;5.78;;;1.33;;
14858;SDS011;7521;51.700;6.874;2023-04-25T14:44:47;6.07;;;2.00;;
14858;SDS011;7521;51.700;6.874;2023-04-25T14:47:52;3.72;;;1.02;;
14858;SDS011;7521;51.700;6.874;2023-04-25T14:50:57;7.22;;;1.67;;
14858;SDS011;7521;51.700;6.874;2023-04-25T14:54:02;6.33;;;1.50;;
14858;SDS011;7521;51.700;6.874;2023-04-25T14:57:08;4.03;;;1.23;;
14858;SDS011;7521;51.700;6.874;2023-04-25T15:00:13;6.18;;;0.90;;
14858;SDS011;7521;51.700;6.874;2023-04-25T15:03:21;4.03;;;1.07;;
14858;SDS011;7521;51.700;6.874;2023-04-25T15:06:26;3.67;;;1.13;;
14858;SDS011;7521;51.700;6.874;2023-04-25T15:09:31;8.50;;;1.50;;
14858;SDS011;7521;51.700;6.874;2023-04-25T15:12:37;4.35;;;1.23;;
14858;SDS011;7521;51.700;6.874;2023-04-25T15:15:42;6.37;;;1.50;;
14858;SDS011;7521;51.700;6.874;2023-04-25T15:18:47;4.93;;;1.23;;
14858;SDS011;7521;51.700;6.874;2023-04-25T15:21:52;4.30;;;1.52;;
14858;SDS011;7521;51.700;6.874;2023-04-25T15:24:58;3.77;;;1.17;;
14858;SDS011;7521;51.700;6.874;2023-04-25T15:28:03;3.53;;;1.17;;
14858;SDS011;7521;51.700;6.874;2023-04-25T15:31:09;3.90;;;1.30;;
14858;SDS011;7521;51.700;6.874;2023-04-25T15:34:14;3.22;;;1.10;;
14858;SDS011;7521;51.700;6.874;2023-04-25T15:37:19;4.15;;;1.15;;
14858;SDS011;7521;51.700;6.874;2023-04-25T15:40:25;3.78;;;0.93;;
14858;SDS011;7521;51.700;6.874;2023-04-25T15:43:30;4.73;;;1.40;;
14858;SDS011;7521;51.700;6.874;2023-04-25T15:46:35;3.37;;;0.90;;
14858;SDS011;7521;51.700;6.874;2023-04-25T15:49:40;8.18;;;1.02;;
14858;SDS011;7521;51.700;6.874;2023-04-25T15:52:47;5.88;;;1.10;;
14858;SDS011;7521;51.700;6.874;2023-04-25T15:55:52;6.00;;;1.17;;
14858;SDS011;7521;51.700;6.874;2023-04-25T15:58:57;8.73;;;1.47;;
14858;SDS011;7521;51.700;6.874;2023-04-25T16:02:02;5.43;;;1.13;;
14858;SDS011;7521;51.700;6.874;2023-04-25T16:05:07;3.28;;;0.90;;
14858;SDS011;7521;51.700;6.874;2023-04-25T16:08:13;3.97;;;1.30;;
14858;SDS011;7521;51.700;6.874;2023-04-25T16:11:18;3.58;;;1.10;;
14858;SDS011;7521;51.700;6.874;2023-04-25T16:14:23;7.60;;;1.10;;
14858;SDS011;7521;51.700;6.874;2023-04-25T16:17:29;4.57;;;1.23;;
14858;SDS011;7521;51.700;6.874;2023-04-25T16:20:34;6.80;;;1.10;;
14858;SDS011;7521;51.700;6.874;2023-04-25T16:23:39;2.70;;;0.88;;
14858;SDS011;7521;51.700;6.874;2023-04-25T16:26:44;1.50;;;0.63;;
14858;SDS011;7521;51.700;6.874;2023-04-25T16:29:49;5.47;;;1.20;;
14858;SDS011;7521;51.700;6.874;2023-04-25T16:32:55;6.37;;;0.77;;
14858;SDS011;7521;51.700;6.874;2023-04-25T16:36:01;4.40;;;1.07;;
14858;SDS011;7521;51.700;6.874;2023-04-25T16:39:06;4.23;;;0.97;;
14858;SDS011;7521;51.700;6.874;2023-04-25T16:42:12;5.70;;;1.13;;
14858;SDS011;7521;51.700;6.874;2023-04-25T16:45:17;4.20;;;1.30;;
14858;SDS011;7521;51.700;6.874;2023-04-25T16:48:24;4.03;;;0.97;;
14858;SDS011;7521;51.700;6.874;2023-04-25T16:51:30;3.97;;;1.10;;
14858;SDS011;7521;51.700;6.874;2023-04-25T16:54:36;8.63;;;1.53;;
14858;SDS011;7521;51.700;6.874;2023-04-25T16:57:41;5.57;;;1.00;;
14858;SDS011;7521;51.700;6.874;2023-04-25T17:00:46;6.07;;;1.63;;
14858;SDS011;7521;51.700;6.874;2023-04-25T17:03:52;7.33;;;1.23;;
14858;SDS011;7521;51.700;6.874;2023-04-25T17:06:57;6.57;;;1.17;;
14858;SDS011;7521;51.700;6.874;2023-04-25T17:10:02;5.53;;;1.10;;
14858;SDS011;7521;51.700;6.874;2023-04-25T17:13:07;7.07;;;1.17;;
14858;SDS011;7521;51.700;6.874;2023-04-25T17:16:12;2.22;;;1.10;;
14858;SDS011;7521;51.700;6.874;2023-04-25T17:19:20;2.30;;;0.90;;
14858;SDS011;7521;51.700;6.874;2023-04-25T17:22:26;7.10;;;1.30;;
14858;SDS011;7521;51.700;6.874;2023-04-25T17:25:31;5.07;;;1.70;;
14858;SDS011;7521;51.700;6.874;2023-04-25T17:28:37;6.40;;;1.43;;
14858;SDS011;7521;51.700;6.874;2023-04-25T17:31:43;6.60;;;1.50;;
14858;SDS011;7521;51.700;6.874;2023-04-25T17:34:48;8.70;;;1.67;;
14858;SDS011;7521;51.700;6.874;2023-04-25T17:37:53;7.45;;;1.55;;
14858;SDS011;7521;51.700;6.874;2023-04-25T17:40:58;2.60;;;0.87;;
14858;SDS011;7521;51.700;6.874;2023-04-25T17:44:04;3.63;;;1.10;;
14858;SDS011;7521;51.700;6.874;2023-04-25T17:47:09;3.70;;;0.97;;
14858;SDS011;7521;51.700;6.874;2023-04-25T17:50:15;3.60;;;1.07;;
14858;SDS011;7521;51.700;6.874;2023-04-25T17:53:20;3.73;;;1.00;;
14858;SDS011;7521;51.700;6.874;2023-04-25T17:56:26;6.40;;;1.10;;
14858;SDS011;7521;51.700;6.874;2023-04-25T17:59:31;3.80;;;0.83;;
14858;SDS011;7521;51.700;6.874;2023-04-25T18:02:36;3.97;;;1.33;;
14858;SDS011;7521;51.700;6.874;2023-04-25T18:05:41;4.60;;;1.03;;
14858;SDS011;7521;51.700;6.874;2023-04-25T18:08:47;3.50;;;1.00;;
14858;SDS011;7521;51.700;6.874;2023-04-25T18:11:53;3.50;;;0.90;;
14858;SDS011;7521;51.700;6.874;2023-04-25T18:14:58;5.07;;;1.20;;
14858;SDS011;7521;51.700;6.874;2023-04-25T18:18:03;7.53;;;1.47;;
14858;SDS011;7521;51.700;6.874;2023-04-25T18:21:18;6.53;;;1.37;;
14858;SDS011;7521;51.700;6.874;2023-04-25T18:24:23;5.23;;;1.17;;
14858;SDS011;7521;51.700;6.874;2023-04-25T18:27:31;5.00;;;1.20;;
14858;SDS011;7521;51.700;6.874;2023-04-25T18:30:36;4.47;;;1.00;;
14858;SDS011;7521;51.700;6.874;2023-04-25T18:33:41;5.03;;;1.37;;
14858;SDS011;7521;51.700;6.874;2023-04-25T18:36:47;3.30;;;0.80;;
14858;SDS011;7521;51.700;6.874;2023-04-25T18:39:52;4.80;;;1.20;;
14858;SDS011;7521;51.700;6.874;2023-04-25T18:42:57;4.50;;;1.40;;
14858;SDS011;7521;51.700;6.874;2023-04-25T18:46:03;6.53;;;1.37;;
14858;SDS011;7521;51.700;6.874;2023-04-25T18:49:08;3.75;;;1.00;;